Time;durP1;ratioP1;P1;durP2;ratioP2;P2;SDS_P1;SDS_P2;PMS_P1;PMS_P2;Temp;Humidity;BMP_temperature;BMP_pressure;BME280_temperature;BME280_humidity;BME280_pressure;Samples;Min_cycle;Max_cycle;Signal;HPM_P1;HPM_P2
2022/03/20 00:01:10;;;;;;;8.73;3.83;;;;;;;;;;5072373;28;20047;-73
2022/03/20 00:03:36;;;;;;;10.43;3.75;;;;;;;;;;5073359;28;20055;-74
2022/03/20 00:06:03;;;;;;;10.98;3.95;;;;;;;;;;5072845;27;20039;-73
2022/03/20 00:08:30;;;;;;;5.07;2.38;;;;;;;;;;5065373;27;20043;-73
2022/03/20 00:10:59;;;;;;;9.55;3.22;;;;;;;;;;5085553;27;20521;-73
2022/03/20 00:13:27;;;;;;;7.53;3.55;;;;;;;;;;5086787;27;20036;-74
2022/03/20 00:15:53;;;;;;;8.68;2.67;;;;;;;;;;5083757;27;20044;-74
2022/03/20 00:18:20;;;;;;;5.57;3.13;;;;;;;;;;5070076;28;20037;-73
2022/03/20 00:20:51;;;;;;;8.38;3.17;;;;;;;;;;5089113;27;20193;-73
2022/03/20 00:23:18;;;;;;;4.38;2.22;;;;;;;;;;5086908;27;20131;-73
2022/03/20 00:25:44;;;;;;;5.10;2.45;;;;;;;;;;5073820;28;20568;-74
2022/03/20 00:28:12;;;;;;;6.90;3.00;;;;;;;;;;5068808;27;20036;-74
2022/03/20 00:30:38;;;;;;;6.45;2.45;;;;;;;;;;5094478;27;20066;-73
2022/03/20 00:33:04;;;;;;;7.32;3.15;;;;;;;;;;5097239;27;20075;-73
2022/03/20 00:35:30;;;;;;;6.10;2.88;;;;;;;;;;5065718;27;20587;-74
2022/03/20 00:37:56;;;;;;;5.88;3.00;;;;;;;;;;5069640;27;20470;-73
2022/03/20 00:40:23;;;;;;;7.40;2.90;;;;;;;;;;5068734;27;20040;-73
2022/03/20 00:42:49;;;;;;;4.88;2.53;;;;;;;;;;5067849;28;20043;-74
2022/03/20 00:45:15;;;;;;;7.15;2.97;;;;;;;;;;5073702;27;20226;-73
2022/03/20 00:47:41;;;;;;;3.22;2.60;;;;;;;;;;5074470;27;20589;-74
2022/03/20 00:50:07;;;;;;;4.63;2.35;;;;;;;;;;5063952;27;20488;-73
2022/03/20 00:52:34;;;;;;;4.25;2.55;;;;;;;;;;5085560;27;21876;-73
2022/03/20 00:55:00;;;;;;;8.07;3.35;;;;;;;;;;5088817;27;20049;-73
2022/03/20 00:57:26;;;;;;;3.67;2.38;;;;;;;;;;5071860;27;20044;-73
2022/03/20 00:59:52;;;;;;;3.47;2.08;;;;;;;;;;5088763;27;20123;-74
2022/03/20 01:02:19;;;;;;;5.03;2.30;;;;;;;;;;5071501;27;20078;-73
2022/03/20 01:04:45;;;;;;;6.07;4.03;;;;;;;;;;5072926;28;20411;-73
2022/03/20 01:07:11;;;;;;;5.43;2.10;;;;;;;;;;5090144;27;20112;-73
2022/03/20 01:09:37;;;;;;;4.85;2.40;;;;;;;;;;5084361;27;20554;-73
2022/03/20 01:12:04;;;;;;;7.28;2.20;;;;;;;;;;5072050;28;20044;-73
2022/03/20 01:14:30;;;;;;;4.38;2.80;;;;;;;;;;5067097;28;20033;-73
2022/03/20 01:16:56;;;;;;;2.83;1.90;;;;;;;;;;5066125;28;20050;-73
2022/03/20 01:19:26;;;;;;;3.30;1.60;;;;;;;;;;5071178;28;20083;-74
2022/03/20 01:21:52;;;;;;;3.58;2.05;;;;;;;;;;5071252;28;20139;-74
2022/03/20 01:24:19;;;;;;;5.32;1.50;;;;;;;;;;5071560;28;20037;-74
2022/03/20 01:26:45;;;;;;;5.18;1.75;;;;;;;;;;5072076;28;20222;-74
2022/03/20 01:29:11;;;;;;;3.40;1.73;;;;;;;;;;5076002;28;20032;-74
2022/03/20 01:31:37;;;;;;;2.75;1.48;;;;;;;;;;5075244;28;20051;-74
2022/03/20 01:34:04;;;;;;;6.85;2.15;;;;;;;;;;5077770;28;20040;-74
2022/03/20 01:36:30;;;;;;;1.55;1.15;;;;;;;;;;5089288;27;20056;-74
2022/03/20 01:38:56;;;;;;;2.00;1.17;;;;;;;;;;5072453;28;20586;-74
2022/03/20 01:41:23;;;;;;;3.20;1.67;;;;;;;;;;5090248;27;20032;-74
2022/03/20 01:43:53;;;;;;;2.63;1.70;;;;;;;;;;5093775;27;20048;-73
2022/03/20 01:46:19;;;;;;;3.10;1.48;;;;;;;;;;5073330;28;20040;-74
2022/03/20 01:48:46;;;;;;;3.25;1.60;;;;;;;;;;5079407;28;20925;-74
2022/03/20 01:51:12;;;;;;;3.70;1.63;;;;;;;;;;5073079;28;20469;-74
2022/03/20 01:53:39;;;;;;;4.63;1.70;;;;;;;;;;5088627;27;20036;-74
2022/03/20 01:56:05;;;;;;;3.78;1.80;;;;;;;;;;5076985;27;20082;-74
2022/03/20 01:58:32;;;;;;;2.65;1.60;;;;;;;;;;5089997;27;20070;-74
2022/03/20 02:00:58;;;;;;;2.45;1.38;;;;;;;;;;5071279;28;20528;-73
2022/03/20 02:03:24;;;;;;;5.30;1.52;;;;;;;;;;5072161;27;20032;-74
2022/03/20 02:05:50;;;;;;;3.45;1.90;;;;;;;;;;5078192;27;20106;-74
2022/03/20 02:08:17;;;;;;;3.22;1.40;;;;;;;;;;5069881;28;20037;-74
2022/03/20 02:10:43;;;;;;;5.45;1.40;;;;;;;;;;5071716;27;20075;-74
2022/03/20 02:13:09;;;;;;;3.70;1.80;;;;;;;;;;5086053;27;20044;-73
2022/03/20 02:15:38;;;;;;;3.72;1.75;;;;;;;;;;5075320;27;20056;-74
2022/03/20 02:18:07;;;;;;;2.38;1.38;;;;;;;;;;5091694;27;20055;-74
2022/03/20 02:20:33;;;;;;;2.55;1.48;;;;;;;;;;5077497;27;20536;-74
2022/03/20 02:23:00;;;;;;;3.20;1.88;;;;;;;;;;5074465;27;20036;-73
2022/03/20 02:25:26;;;;;;;4.72;2.08;;;;;;;;;;5075608;27;20033;-74
2022/03/20 02:27:53;;;;;;;3.55;1.42;;;;;;;;;;5073020;27;20065;-74
2022/03/20 02:30:20;;;;;;;4.13;1.80;;;;;;;;;;5067764;27;20047;-74
2022/03/20 02:32:51;;;;;;;2.85;1.70;;;;;;;;;;5091753;27;20091;-74
2022/03/20 02:35:18;;;;;;;2.85;1.52;;;;;;;;;;5072467;27;20044;-74
2022/03/20 02:37:46;;;;;;;3.75;1.73;;;;;;;;;;5091163;27;20504;-74
2022/03/20 02:40:13;;;;;;;3.95;1.70;;;;;;;;;;5089663;27;20036;-75
2022/03/20 02:42:40;;;;;;;4.30;2.28;;;;;;;;;;5088667;27;20041;-74
2022/03/20 02:45:06;;;;;;;4.93;1.95;;;;;;;;;;5071955;27;20043;-74
2022/03/20 02:47:37;;;;;;;2.83;1.75;;;;;;;;;;5089960;27;20279;-74
2022/03/20 02:50:18;;;;;;;4.30;1.92;;;;;;;;;;5072359;27;20048;-74
2022/03/20 02:52:46;;;;;;;2.88;1.25;;;;;;;;;;5087359;27;20118;-74
2022/03/20 02:55:12;;;;;;;4.88;1.52;;;;;;;;;;5092396;27;20043;-74
2022/03/20 02:57:38;;;;;;;3.17;1.73;;;;;;;;;;5089592;27;20051;-74
2022/03/20 03:00:06;;;;;;;3.45;1.20;;;;;;;;;;5077783;27;20063;-74
2022/03/20 03:02:36;;;;;;;4.50;1.75;;;;;;;;;;5073291;27;20040;-74
2022/03/20 03:05:02;;;;;;;7.57;1.85;;;;;;;;;;5075721;28;20044;-74
2022/03/20 03:07:29;;;;;;;6.57;1.98;;;;;;;;;;5074783;27;20087;-74
2022/03/20 03:12:41;;;;;;;3.15;2.15;;;;;;;;;;5089942;27;20040;-74
2022/03/20 03:15:19;;;;;;;4.03;1.52;;;;;;;;;;5071288;28;20434;-74
2022/03/20 03:17:46;;;;;;;3.05;1.83;;;;;;;;;;5075546;28;20497;-74
2022/03/20 03:20:12;;;;;;;1.88;1.17;;;;;;;;;;5092385;27;20055;-74
2022/03/20 03:22:38;;;;;;;2.50;1.30;;;;;;;;;;5072489;28;20071;-74
2022/03/20 03:25:05;;;;;;;4.95;1.92;;;;;;;;;;5090241;27;20073;-74
2022/03/20 03:27:31;;;;;;;5.45;1.63;;;;;;;;;;5093685;27;20044;-73
2022/03/20 03:29:57;;;;;;;3.88;1.67;;;;;;;;;;5077983;28;20130;-73
2022/03/20 03:32:23;;;;;;;3.10;1.92;;;;;;;;;;5087936;27;20040;-74
2022/03/20 03:37:35;;;;;;;3.00;1.65;;;;;;;;;;5090104;27;20069;-73
2022/03/20 03:40:02;;;;;;;4.70;1.58;;;;;;;;;;5068517;28;20078;-74
2022/03/20 03:42:30;;;;;;;3.05;1.50;;;;;;;;;;5075763;28;20331;-73
2022/03/20 03:44:56;;;;;;;2.97;1.13;;;;;;;;;;5073026;28;20048;-73
2022/03/20 03:47:24;;;;;;;2.42;1.20;;;;;;;;;;5072623;28;20040;-73
2022/03/20 03:49:50;;;;;;;5.50;1.42;;;;;;;;;;5091602;27;20048;-74
2022/03/20 03:52:16;;;;;;;7.40;1.30;;;;;;;;;;5073742;28;20036;-74
2022/03/20 03:54:42;;;;;;;3.88;1.70;;;;;;;;;;5072436;28;20532;-74
2022/03/20 03:57:09;;;;;;;4.40;1.63;;;;;;;;;;5073859;28;20533;-74
2022/03/20 03:59:35;;;;;;;7.22;1.88;;;;;;;;;;5074364;28;20032;-73
2022/03/20 04:02:01;;;;;;;8.10;1.77;;;;;;;;;;5069305;28;20263;-73
2022/03/20 04:04:28;;;;;;;4.97;1.48;;;;;;;;;;5072406;28;20632;-73
2022/03/20 04:06:55;;;;;;;4.47;1.73;;;;;;;;;;5091314;27;20106;-74
2022/03/20 04:09:21;;;;;;;4.40;1.60;;;;;;;;;;5094487;27;20458;-74
2022/03/20 04:11:47;;;;;;;4.63;2.03;;;;;;;;;;5072528;28;20048;-74
2022/03/20 04:14:13;;;;;;;5.45;1.95;;;;;;;;;;5089500;27;20048;-73
2022/03/20 04:16:39;;;;;;;4.70;1.25;;;;;;;;;;5069648;28;20044;-74
2022/03/20 04:19:05;;;;;;;3.45;1.70;;;;;;;;;;5072093;28;20105;-74
2022/03/20 04:21:31;;;;;;;6.70;2.10;;;;;;;;;;5071723;27;20115;-74
2022/03/20 04:23:58;;;;;;;3.92;2.05;;;;;;;;;;5073327;27;20059;-73
2022/03/20 04:26:24;;;;;;;9.25;2.33;;;;;;;;;;5068645;28;20031;-74
2022/03/20 04:28:52;;;;;;;4.38;1.70;;;;;;;;;;5068346;27;20043;-73
2022/03/20 04:31:19;;;;;;;4.40;2.58;;;;;;;;;;5077942;27;20647;-74
2022/03/20 04:33:50;;;;;;;5.50;2.45;;;;;;;;;;5075528;27;20298;-74
2022/03/20 04:36:17;;;;;;;3.15;1.70;;;;;;;;;;5075025;28;20036;-74
2022/03/20 04:38:43;;;;;;;3.78;1.58;;;;;;;;;;5094084;27;20044;-74
2022/03/20 04:41:10;;;;;;;7.00;1.90;;;;;;;;;;5068188;27;20032;-74
2022/03/20 04:43:36;;;;;;;3.90;1.75;;;;;;;;;;5073799;27;20048;-74
2022/03/20 04:46:02;;;;;;;2.60;1.27;;;;;;;;;;5069953;27;20036;-73
2022/03/20 04:59:27;;;;;;;6.38;2.65;;;;;;;;;;5090722;27;20589;-73
2022/03/20 05:01:53;;;;;;;2.50;1.50;;;;;;;;;;5070037;28;20044;-74
2022/03/20 05:04:19;;;;;;;6.60;1.80;;;;;;;;;;5071162;28;20048;-74
2022/03/20 05:06:45;;;;;;;2.85;1.70;;;;;;;;;;5071981;28;20051;-73
2022/03/20 05:14:42;;;;;;;4.45;1.40;;;;;;;;;;5090417;27;20048;-73
2022/03/20 05:17:08;;;;;;;2.88;1.25;;;;;;;;;;5076462;27;20054;-74
2022/03/20 05:19:35;;;;;;;7.05;2.00;;;;;;;;;;5073069;27;20051;-74
2022/03/20 05:22:02;;;;;;;6.03;2.20;;;;;;;;;;5091142;27;20044;-73
2022/03/20 05:24:28;;;;;;;5.55;2.33;;;;;;;;;;5079582;27;20127;-73
2022/03/20 05:26:54;;;;;;;6.28;1.80;;;;;;;;;;5074669;27;20045;-73
2022/03/20 05:29:20;;;;;;;4.20;1.33;;;;;;;;;;5073833;27;20036;-73
2022/03/20 05:31:46;;;;;;;8.50;2.78;;;;;;;;;;5091434;27;20040;-73
2022/03/20 05:34:13;;;;;;;4.18;1.95;;;;;;;;;;5064729;28;20060;-74
2022/03/20 05:36:39;;;;;;;8.15;2.08;;;;;;;;;;5074114;28;20113;-73
2022/03/20 05:39:05;;;;;;;2.80;1.73;;;;;;;;;;5073243;28;20213;-74
2022/03/20 05:41:46;;;;;;;3.35;1.95;;;;;;;;;;5070971;28;20037;-74
2022/03/20 05:44:12;;;;;;;3.97;1.42;;;;;;;;;;5091700;27;20041;-74
2022/03/20 05:46:40;;;;;;;3.95;1.80;;;;;;;;;;5092645;27;20043;-74
2022/03/20 05:49:15;;;;;;;1.83;1.25;;;;;;;;;;5065653;27;23004;-74
2022/03/20 05:51:46;;;;;;;3.03;1.63;;;;;;;;;;5088374;27;20037;-73
2022/03/20 05:54:14;;;;;;;2.72;1.40;;;;;;;;;;5075756;27;20083;-74
2022/03/20 05:59:31;;;;;;;5.63;1.55;;;;;;;;;;5088389;27;20499;-74
2022/03/20 06:02:10;;;;;;;4.32;1.70;;;;;;;;;;5090825;27;20055;-74
2022/03/20 06:04:37;;;;;;;2.90;1.60;;;;;;;;;;5072265;27;20091;-74
2022/03/20 06:07:11;;;;;;;2.03;1.38;;;;;;;;;;5093034;27;20051;-74
2022/03/20 06:09:40;;;;;;;2.33;1.55;;;;;;;;;;5073869;27;20036;-74
2022/03/20 06:12:07;;;;;;;2.05;1.52;;;;;;;;;;5074733;27;20139;-74
2022/03/20 06:14:39;;;;;;;3.15;1.45;;;;;;;;;;5071707;27;20048;-74
2022/03/20 06:17:10;;;;;;;2.63;1.52;;;;;;;;;;5093680;27;20492;-74
2022/03/20 06:19:41;;;;;;;2.38;1.77;;;;;;;;;;5088852;27;20032;-74
2022/03/20 06:22:10;;;;;;;2.53;1.40;;;;;;;;;;5094206;27;20044;-74
2022/03/20 06:24:55;;;;;;;5.35;1.48;;;;;;;;;;5074391;27;20127;-74
2022/03/20 06:27:43;;;;;;;2.30;1.30;;;;;;;;;;5075298;27;20504;-75
2022/03/20 06:30:09;;;;;;;2.22;1.10;;;;;;;;;;5090320;27;20048;-75
2022/03/20 06:32:37;;;;;;;2.33;1.42;;;;;;;;;;5094893;27;20040;-75
2022/03/20 06:35:10;;;;;;;3.53;1.55;;;;;;;;;;5077450;27;20028;-74
2022/03/20 06:37:43;;;;;;;2.28;1.40;;;;;;;;;;5078625;27;20068;-74
2022/03/20 06:40:12;;;;;;;3.13;1.65;;;;;;;;;;5071916;27;20498;-75
2022/03/20 06:42:42;;;;;;;1.90;1.38;;;;;;;;;;5072928;28;20974;-74
2022/03/20 06:45:11;;;;;;;2.05;1.50;;;;;;;;;;5090914;27;20044;-75
2022/03/20 06:47:41;;;;;;;3.17;1.75;;;;;;;;;;5088799;27;20580;-75
2022/03/20 06:50:21;;;;;;;;;;;;;;;;;;;;;
2022/03/20 06:52:50;;;;;;;3.00;1.45;;;;;;;;;;5092302;27;39889;-75
2022/03/20 06:55:24;;;;;;;4.10;1.75;;;;;;;;;;5072278;28;20106;-74
2022/03/20 06:58:12;;;;;;;2.90;1.25;;;;;;;;;;5076117;28;20059;-75
2022/03/20 07:00:38;;;;;;;3.03;1.60;;;;;;;;;;5076299;27;20048;-74
2022/03/20 07:03:10;;;;;;;2.30;1.35;;;;;;;;;;5071939;27;20036;-74
2022/03/20 07:05:44;;;;;;;3.33;2.08;;;;;;;;;;5093970;27;20086;-74
2022/03/20 07:08:17;;;;;;;3.92;1.33;;;;;;;;;;5070434;27;20113;-75
2022/03/20 07:10:54;;;;;;;4.25;2.05;;;;;;;;;;5070264;28;20070;-74
2022/03/20 07:16:08;;;;;;;6.20;1.98;;;;;;;;;;5090520;27;20040;-74
2022/03/20 07:18:39;;;;;;;3.00;1.45;;;;;;;;;;5074464;27;20064;-74
2022/03/20 07:21:18;;;;;;;4.45;2.55;;;;;;;;;;5070769;28;20107;-74
2022/03/20 07:24:11;;;;;;;4.53;2.30;;;;;;;;;;5075036;28;20468;-77
2022/03/20 07:29:29;;;;;;;2.45;1.45;;;;;;;;;;5070001;28;20045;-76
2022/03/20 07:32:06;;;;;;;5.95;2.47;;;;;;;;;;5068511;28;20048;-75
2022/03/20 07:34:35;;;;;;;5.93;1.95;;;;;;;;;;5074806;28;20080;-74
2022/03/20 07:37:03;;;;;;;4.13;2.00;;;;;;;;;;5070052;28;20048;-75
2022/03/20 07:39:33;;;;;;;5.93;1.98;;;;;;;;;;5070493;28;20040;-75
2022/03/20 07:41:59;;;;;;;5.38;2.03;;;;;;;;;;5072302;28;20044;-75
2022/03/20 07:44:33;;;;;;;6.60;2.70;;;;;;;;;;5074283;28;20091;-75
2022/03/20 07:47:00;;;;;;;5.68;2.80;;;;;;;;;;5068533;28;20045;-75
2022/03/20 07:49:28;;;;;;;5.30;2.90;;;;;;;;;;5071654;28;20040;-74
2022/03/20 07:51:57;;;;;;;5.43;2.35;;;;;;;;;;5069010;28;20095;-75
2022/03/20 07:54:26;;;;;;;5.55;2.90;;;;;;;;;;5070143;28;20047;-75
2022/03/20 07:56:52;;;;;;;6.80;2.83;;;;;;;;;;5073279;28;20060;-74
2022/03/20 07:59:21;;;;;;;7.95;2.40;;;;;;;;;;5073750;28;20121;-74
2022/03/20 08:01:47;;;;;;;5.93;2.50;;;;;;;;;;5076308;28;20040;-74
2022/03/20 08:04:13;;;;;;;7.15;3.40;;;;;;;;;;5070623;28;20044;-74
2022/03/20 08:06:39;;;;;;;7.68;3.53;;;;;;;;;;5067176;28;20048;-74
2022/03/20 08:09:05;;;;;;;6.18;2.92;;;;;;;;;;5068246;28;20064;-74
2022/03/20 08:11:34;;;;;;;8.93;4.22;;;;;;;;;;5071858;28;20556;-74
2022/03/20 08:14:08;;;;;;;10.30;3.58;;;;;;;;;;5068250;28;20067;-74
2022/03/20 08:16:37;;;;;;;7.90;3.08;;;;;;;;;;5071088;28;20110;-75
2022/03/20 08:19:06;;;;;;;7.85;3.97;;;;;;;;;;5071076;28;20051;-75
2022/03/20 08:21:35;;;;;;;10.23;3.85;;;;;;;;;;5069904;28;20101;-74
2022/03/20 08:24:02;;;;;;;6.47;3.13;;;;;;;;;;5071869;28;20048;-74
2022/03/20 08:26:31;;;;;;;5.95;3.60;;;;;;;;;;5069583;28;20106;-74
2022/03/20 08:28:59;;;;;;;8.95;4.10;;;;;;;;;;5071242;28;20101;-74
2022/03/20 08:31:34;;;;;;;14.52;4.05;;;;;;;;;;5068297;28;20052;-74
2022/03/20 08:34:04;;;;;;;9.95;4.65;;;;;;;;;;5070248;28;20040;-82
2022/03/20 08:36:34;;;;;;;8.70;4.35;;;;;;;;;;5068952;28;20048;-80
2022/03/20 08:39:01;;;;;;;9.38;4.47;;;;;;;;;;5071193;28;20045;-76
2022/03/20 08:41:28;;;;;;;6.15;3.60;;;;;;;;;;5073895;28;20044;-76
2022/03/20 08:43:57;;;;;;;7.03;3.13;;;;;;;;;;5068774;28;20044;-75
2022/03/20 08:46:23;;;;;;;8.18;4.72;;;;;;;;;;5071122;28;20052;-76
2022/03/20 08:48:52;;;;;;;9.60;4.75;;;;;;;;;;5068590;28;20128;-76
2022/03/20 08:51:18;;;;;;;10.23;3.80;;;;;;;;;;5067102;28;20037;-74
2022/03/20 08:53:44;;;;;;;9.20;4.65;;;;;;;;;;5069528;28;20045;-74
2022/03/20 08:56:10;;;;;;;8.73;4.72;;;;;;;;;;5063467;28;20036;-74
2022/03/20 08:58:37;;;;;;;10.88;4.88;;;;;;;;;;5065864;28;20029;-74
2022/03/20 09:01:03;;;;;;;9.98;5.63;;;;;;;;;;5064996;28;20041;-73
2022/03/20 09:03:31;;;;;;;10.23;4.15;;;;;;;;;;5062248;28;20459;-74
2022/03/20 09:05:58;;;;;;;9.05;4.45;;;;;;;;;;5065523;28;20830;-73
2022/03/20 09:08:26;;;;;;;10.45;4.20;;;;;;;;;;5061135;28;20136;-76
2022/03/20 09:10:53;;;;;;;10.50;4.70;;;;;;;;;;5063377;28;20077;-73
2022/03/20 09:13:19;;;;;;;9.43;4.45;;;;;;;;;;5060207;28;20044;-73
2022/03/20 09:15:45;;;;;;;10.35;4.50;;;;;;;;;;5064961;28;20049;-73
2022/03/20 09:20:56;;;;;;;9.57;4.28;;;;;;;;;;5025248;27;1474239;-74
2022/03/20 09:23:22;;;;;;;9.70;5.82;;;;;;;;;;5064705;28;20050;-73
2022/03/20 09:25:48;;;;;;;10.60;4.10;;;;;;;;;;5083118;27;20493;-73
2022/03/20 09:28:14;;;;;;;9.75;3.80;;;;;;;;;;5070315;28;20045;-73
2022/03/20 09:30:41;;;;;;;9.13;4.75;;;;;;;;;;5066079;28;20039;-73
2022/03/20 09:33:08;;;;;;;9.00;4.00;;;;;;;;;;5078628;28;20047;-73
2022/03/20 09:35:35;;;;;;;12.38;5.60;;;;;;;;;;5068731;28;20041;-73
2022/03/20 09:38:01;;;;;;;8.68;4.03;;;;;;;;;;5066133;28;20040;-74
2022/03/20 09:40:27;;;;;;;10.73;5.10;;;;;;;;;;5069411;28;20079;-74
2022/03/20 09:42:53;;;;;;;9.38;4.30;;;;;;;;;;5073508;28;20044;-73
2022/03/20 09:45:20;;;;;;;9.52;4.32;;;;;;;;;;5090927;27;20032;-73
2022/03/20 09:47:47;;;;;;;12.68;5.32;;;;;;;;;;5089141;27;20036;-73
2022/03/20 09:50:14;;;;;;;10.75;5.25;;;;;;;;;;5092569;27;20513;-75
2022/03/20 09:52:40;;;;;;;9.73;5.85;;;;;;;;;;5073663;28;20043;-74
2022/03/20 09:55:07;;;;;;;10.65;4.85;;;;;;;;;;5074975;27;20036;-76
2022/03/20 09:57:33;;;;;;;11.35;4.25;;;;;;;;;;5073956;27;20048;-74
2022/03/20 10:00:01;;;;;;;9.32;4.40;;;;;;;;;;5091019;27;20037;-73
2022/03/20 10:02:28;;;;;;;9.23;4.65;;;;;;;;;;5094728;27;20147;-74
2022/03/20 10:04:54;;;;;;;13.68;5.18;;;;;;;;;;5092271;27;20055;-74
2022/03/20 10:07:21;;;;;;;9.65;5.60;;;;;;;;;;5076119;27;20036;-73
2022/03/20 10:10:05;;;;;;;8.00;5.00;;;;;;;;;;5097074;27;20040;-74
2022/03/20 10:12:32;;;;;;;10.20;4.47;;;;;;;;;;5064329;28;20045;-74
2022/03/20 10:14:58;;;;;;;7.88;4.50;;;;;;;;;;5078663;28;20052;-74
2022/03/20 10:17:25;;;;;;;8.25;4.88;;;;;;;;;;5079830;27;20047;-74
2022/03/20 10:19:51;;;;;;;10.70;4.82;;;;;;;;;;5073429;28;20044;-73
2022/03/20 10:22:20;;;;;;;9.38;4.95;;;;;;;;;;5076207;27;20076;-78
2022/03/20 10:24:50;;;;;;;9.85;5.40;;;;;;;;;;5095045;27;20531;-72
2022/03/20 10:27:16;;;;;;;10.90;5.32;;;;;;;;;;5077788;27;20505;-76
2022/03/20 10:29:50;;;;;;;11.70;5.45;;;;;;;;;;5077441;28;20113;-76
2022/03/20 10:32:16;;;;;;;11.15;5.40;;;;;;;;;;5073986;28;20082;-76
2022/03/20 10:34:49;;;;;;;8.55;5.57;;;;;;;;;;5091822;27;20040;-76
2022/03/20 10:37:19;;;;;;;10.00;5.28;;;;;;;;;;5073284;28;20043;-76
2022/03/20 10:39:45;;;;;;;11.63;5.95;;;;;;;;;;5081992;28;20036;-76
2022/03/20 10:42:18;;;;;;;8.88;4.95;;;;;;;;;;5079170;28;20061;-76
2022/03/20 10:44:46;;;;;;;10.57;5.07;;;;;;;;;;5075339;28;20052;-76
2022/03/20 10:47:18;;;;;;;7.30;4.75;;;;;;;;;;5072016;28;20040;-76
2022/03/20 10:50:05;;;;;;;10.50;4.90;;;;;;;;;;5092567;27;20045;-76
2022/03/20 10:52:35;;;;;;;12.60;5.30;;;;;;;;;;5075874;27;20049;-76
2022/03/20 10:55:09;;;;;;;9.40;4.03;;;;;;;;;;5077701;28;20040;-76
2022/03/20 10:57:36;;;;;;;8.40;3.95;;;;;;;;;;5090260;27;20484;-76
2022/03/20 11:00:06;;;;;;;9.18;4.22;;;;;;;;;;5077028;27;20055;-75
2022/03/20 11:02:35;;;;;;;7.80;3.70;;;;;;;;;;5091182;27;20176;-76
2022/03/20 11:05:02;;;;;;;9.65;5.20;;;;;;;;;;5075765;27;20052;-76
2022/03/20 11:07:28;;;;;;;9.23;6.43;;;;;;;;;;5076547;28;20086;-76
2022/03/20 11:09:56;;;;;;;8.32;4.57;;;;;;;;;;5071485;28;20055;-76
2022/03/20 11:12:26;;;;;;;9.35;5.43;;;;;;;;;;5095873;27;20031;-76
2022/03/20 11:14:54;;;;;;;8.20;4.97;;;;;;;;;;5074778;27;20042;-76
2022/03/20 11:17:22;;;;;;;12.23;4.80;;;;;;;;;;5071456;28;20127;-76
2022/03/20 11:19:53;;;;;;;10.75;5.97;;;;;;;;;;5074092;27;20040;-75
2022/03/20 11:22:20;;;;;;;12.93;5.17;;;;;;;;;;5071174;28;20074;-76
2022/03/20 11:24:47;;;;;;;8.77;6.03;;;;;;;;;;5072104;28;20803;-77
2022/03/20 11:27:18;;;;;;;9.60;4.88;;;;;;;;;;5071673;27;20127;-78
2022/03/20 11:29:48;;;;;;;12.18;4.55;;;;;;;;;;5071604;28;20131;-75
2022/03/20 11:32:15;;;;;;;13.05;4.70;;;;;;;;;;5090611;27;20051;-76
2022/03/20 11:34:43;;;;;;;9.80;4.32;;;;;;;;;;5071269;28;20052;-77
2022/03/20 11:37:10;;;;;;;9.02;3.53;;;;;;;;;;5075985;28;20046;-76
2022/03/20 11:39:37;;;;;;;7.53;4.50;;;;;;;;;;5091107;27;20051;-76
2022/03/20 11:42:23;;;;;;;9.90;3.97;;;;;;;;;;5096022;27;20140;-75
2022/03/20 11:44:52;;;;;;;8.73;4.65;;;;;;;;;;5093819;27;20047;-76
2022/03/20 11:47:18;;;;;;;11.05;5.28;;;;;;;;;;5074977;28;20549;-75
2022/03/20 11:49:44;;;;;;;6.72;3.78;;;;;;;;;;5095350;27;20041;-78
2022/03/20 11:52:13;;;;;;;9.30;3.67;;;;;;;;;;5073597;28;20089;-76
2022/03/20 11:54:42;;;;;;;9.10;4.82;;;;;;;;;;5062093;28;20045;-76
2022/03/20 11:57:27;;;;;;;9.20;5.40;;;;;;;;;;5071439;28;20043;-74
2022/03/20 11:59:56;;;;;;;7.07;3.63;;;;;;;;;;5093797;27;20040;-75
2022/03/20 12:02:42;;;;;;;8.23;4.38;;;;;;;;;;5094513;27;20698;-75
2022/03/20 12:05:21;;;;;;;8.68;4.30;;;;;;;;;;5069167;28;20059;-74
2022/03/20 12:08:06;;;;;;;6.32;3.90;;;;;;;;;;5072313;28;20094;-75
2022/03/20 12:10:43;;;;;;;7.97;3.97;;;;;;;;;;5093087;27;20093;-74
2022/03/20 12:13:34;;;;;;;11.45;4.10;;;;;;;;;;5061556;27;20047;-75
2022/03/20 12:16:00;;;;;;;7.57;3.22;;;;;;;;;;5077325;28;20056;-78
2022/03/20 12:18:26;;;;;;;7.40;3.60;;;;;;;;;;5089588;27;20048;-74
2022/03/20 12:21:02;;;;;;;8.65;3.88;;;;;;;;;;5075503;28;20907;-75
2022/03/20 12:23:36;;;;;;;7.80;4.28;;;;;;;;;;5076100;28;20867;-75
2022/03/20 12:26:20;;;;;;;8.10;4.03;;;;;;;;;;5088856;27;20116;-75
2022/03/20 12:28:47;;;;;;;10.40;5.25;;;;;;;;;;5093599;27;20088;-75
2022/03/20 12:31:23;;;;;;;5.80;3.80;;;;;;;;;;5074292;27;20078;-76
2022/03/20 12:34:10;;;;;;;6.97;3.17;;;;;;;;;;5072626;27;20047;-75
2022/03/20 12:36:36;;;;;;;5.78;3.05;;;;;;;;;;5092445;27;20039;-76
2022/03/20 12:39:02;;;;;;;9.60;4.03;;;;;;;;;;5069366;28;20036;-75
2022/03/20 12:41:28;;;;;;;5.32;2.60;;;;;;;;;;5072288;28;20568;-75
2022/03/20 12:43:59;;;;;;;5.50;2.72;;;;;;;;;;5077063;27;20151;-77
2022/03/20 12:46:25;;;;;;;7.18;3.22;;;;;;;;;;5075041;28;20048;-75
2022/03/20 12:48:53;;;;;;;6.70;3.30;;;;;;;;;;5083693;27;20051;-76
2022/03/20 12:51:45;;;;;;;7.82;4.20;;;;;;;;;;5068694;28;20044;-79
2022/03/20 12:54:11;;;;;;;;;;;;;;;;;;5068257;27;20047;-76
2022/03/20 12:56:50;;;;;;;7.32;3.97;;;;;;;;;;5090169;27;19973;-76
2022/03/20 12:59:24;;;;;;;8.68;4.55;;;;;;;;;;5076581;28;20044;-76
2022/03/20 13:01:50;;;;;;;7.68;4.30;;;;;;;;;;5073297;28;20561;-76
2022/03/20 13:04:18;;;;;;;7.80;4.38;;;;;;;;;;5078217;28;20048;-76
2022/03/20 13:06:48;;;;;;;8.32;4.25;;;;;;;;;;5072044;28;20051;-76
2022/03/20 13:09:15;;;;;;;11.52;3.88;;;;;;;;;;5072269;28;20140;-76
2022/03/20 13:11:48;;;;;;;6.95;3.70;;;;;;;;;;5092349;27;20047;-76
2022/03/20 13:14:15;;;;;;;5.55;3.08;;;;;;;;;;5077136;28;20048;-75
2022/03/20 13:16:54;;;;;;;6.22;3.38;;;;;;;;;;5069962;28;20106;-80
2022/03/20 13:19:37;;;;;;;8.82;3.80;;;;;;;;;;5072882;28;20043;-76
2022/03/20 13:22:07;;;;;;;6.57;4.40;;;;;;;;;;5062881;28;20053;-77
2022/03/20 13:24:34;;;;;;;9.73;4.78;;;;;;;;;;5069844;28;20044;-76
2022/03/20 13:27:03;;;;;;;7.32;3.95;;;;;;;;;;5071336;28;20272;-76
2022/03/20 13:29:32;;;;;;;6.53;4.05;;;;;;;;;;5070974;28;20041;-80
2022/03/20 13:32:03;;;;;;;12.82;5.43;;;;;;;;;;5070656;28;20048;-77
2022/03/20 13:34:35;;;;;;;7.93;3.95;;;;;;;;;;5065634;28;20037;-77
2022/03/20 13:37:03;;;;;;;;;;;;;;;;;;5070518;28;20103;-78
2022/03/20 13:39:33;;;;;;;7.45;3.38;;;;;;;;;;5063023;28;19924;-78
2022/03/20 13:41:59;;;;;;;5.78;3.70;;;;;;;;;;5091073;27;20032;-76
2022/03/20 13:44:37;;;;;;;8.02;3.78;;;;;;;;;;5070783;28;20055;-77
2022/03/20 13:47:03;;;;;;;7.03;3.85;;;;;;;;;;5068275;28;20708;-77
2022/03/20 13:49:30;;;;;;;7.07;3.65;;;;;;;;;;5074102;28;20047;-77
2022/03/20 13:51:56;;;;;;;7.65;3.25;;;;;;;;;;5064463;28;20044;-76
2022/03/20 13:54:24;;;;;;;6.90;3.35;;;;;;;;;;5069776;28;20055;-76
2022/03/20 13:57:09;;;;;;;7.60;4.40;;;;;;;;;;5075019;28;20045;-76
2022/03/20 13:59:52;;;;;;;5.38;2.97;;;;;;;;;;5064435;28;20048;-76
2022/03/20 14:02:20;;;;;;;;;;;;;;;;;;5069988;28;20044;-76
2022/03/20 14:04:47;;;;;;;7.10;3.15;;;;;;;;;;5074651;28;19973;-75
2022/03/20 14:07:20;;;;;;;5.07;3.00;;;;;;;;;;5076083;28;20518;-76
2022/03/20 14:09:47;;;;;;;6.07;3.17;;;;;;;;;;5069619;28;20045;-76
2022/03/20 14:12:27;;;;;;;9.27;3.20;;;;;;;;;;5069292;28;20045;-75
2022/03/20 14:14:53;;;;;;;5.90;3.45;;;;;;;;;;5074229;28;20108;-75
2022/03/20 14:17:19;;;;;;;6.78;3.30;;;;;;;;;;5072740;28;20193;-75
2022/03/20 14:19:49;;;;;;;8.35;3.92;;;;;;;;;;5071460;28;20044;-75
2022/03/20 14:22:19;;;;;;;7.25;3.38;;;;;;;;;;5099771;27;20036;-74
2022/03/20 14:27:26;;;;;;;6.07;3.17;;;;;;;;;;5092261;27;20048;-76
2022/03/20 14:41:00;;;;;;;7.35;3.63;;;;;;;;;;5091048;27;20037;-75
2022/03/20 14:43:27;;;;;;;8.68;3.97;;;;;;;;;;5075051;27;20037;-75
2022/03/20 14:45:57;;;;;;;7.05;3.47;;;;;;;;;;5079272;27;20568;-75
2022/03/20 14:48:24;;;;;;;7.50;4.15;;;;;;;;;;5088793;27;20048;-75
2022/03/20 14:50:50;;;;;;;11.98;4.43;;;;;;;;;;5073005;28;20571;-75
2022/03/20 14:53:32;;;;;;;9.65;4.38;;;;;;;;;;5090426;27;20535;-75
2022/03/20 14:55:58;;;;;;;9.73;4.88;;;;;;;;;;5070647;28;20050;-75
2022/03/20 14:58:24;;;;;;;8.27;4.18;;;;;;;;;;5089354;27;20041;-75
2022/03/20 15:00:54;;;;;;;14.05;4.63;;;;;;;;;;5090031;27;20048;-75
2022/03/20 15:03:21;;;;;;;10.82;5.38;;;;;;;;;;5069999;27;20054;-76
2022/03/20 15:05:47;;;;;;;9.45;5.10;;;;;;;;;;5077629;27;20139;-75
2022/03/20 15:13:45;;;;;;;12.93;5.63;;;;;;;;;;5094406;27;20123;-75
2022/03/20 15:16:11;;;;;;;11.35;5.32;;;;;;;;;;5098952;27;20040;-75
2022/03/20 15:18:37;;;;;;;10.77;6.05;;;;;;;;;;5089387;27;20101;-76
2022/03/20 15:21:03;;;;;;;9.55;5.18;;;;;;;;;;5080762;27;20055;-76
2022/03/20 15:23:34;;;;;;;11.90;6.03;;;;;;;;;;5072965;28;20068;-75
2022/03/20 15:26:00;;;;;;;14.18;6.07;;;;;;;;;;5075593;27;20036;-75
2022/03/20 15:28:26;;;;;;;11.80;5.82;;;;;;;;;;5092850;27;20048;-75
2022/03/20 15:30:54;;;;;;;11.57;5.53;;;;;;;;;;5097265;27;20111;-75
2022/03/20 15:33:20;;;;;;;10.43;5.53;;;;;;;;;;5069878;28;20090;-75
2022/03/20 15:35:49;;;;;;;15.30;7.20;;;;;;;;;;5073521;28;20048;-75
2022/03/20 15:38:15;;;;;;;10.25;6.20;;;;;;;;;;5074529;28;20056;-75
2022/03/20 15:40:42;;;;;;;13.38;6.05;;;;;;;;;;5094002;27;20046;-76
2022/03/20 15:43:12;;;;;;;13.77;6.93;;;;;;;;;;5075773;28;20127;-75
2022/03/20 15:45:40;;;;;;;17.17;7.07;;;;;;;;;;5073518;28;20166;-75